createdAt,value
2022-11-05T00:00:31.462Z,2.60
2022-11-05T00:03:16.928Z,4.53
2022-11-05T00:06:05.448Z,2.28
2022-11-05T00:08:50.838Z,2.47
2022-11-05T00:11:18.547Z,4.00
2022-11-05T00:14:04.154Z,4.80
2022-11-05T00:16:46.047Z,3.33
2022-11-05T00:19:13.649Z,4.93
2022-11-05T00:21:59.101Z,3.40
2022-11-05T00:24:44.479Z,3.33
2022-11-05T00:27:11.465Z,3.38
2022-11-05T00:29:38.433Z,3.33
2022-11-05T00:32:05.459Z,5.47
2022-11-05T00:34:32.557Z,2.35
2022-11-05T00:36:59.533Z,5.20
2022-11-05T00:39:26.597Z,2.65
2022-11-05T00:42:11.785Z,2.67
2022-11-05T00:44:57.258Z,2.90
2022-11-05T00:47:42.659Z,4.85
2022-11-05T00:50:10.957Z,3.95
2022-11-05T00:52:57.365Z,3.00
2022-11-05T00:55:42.853Z,3.63
2022-11-05T00:58:14.524Z,3.78
2022-11-05T01:00:44.632Z,5.30
2022-11-05T01:03:16.144Z,6.43
2022-11-05T01:05:49.342Z,7.47
2022-11-05T01:08:18.184Z,8.65
2022-11-05T01:10:51.758Z,6.63
2022-11-05T01:13:21.055Z,6.10
2022-11-05T01:15:49.002Z,6.53
2022-11-05T01:18:16.046Z,9.65
2022-11-05T01:20:43.918Z,6.72
2022-11-05T01:23:13.789Z,6.97
2022-11-05T01:25:42.299Z,6.68
2022-11-05T01:28:10.276Z,8.38
2022-11-05T01:30:38.164Z,9.60
2022-11-05T01:33:05.302Z,12.32
2022-11-05T01:35:33.473Z,8.20
2022-11-05T01:38:00.511Z,7.40
2022-11-05T01:40:27.941Z,10.05
2022-11-05T01:42:55.245Z,9.77
2022-11-05T01:45:27.551Z,9.48
2022-11-05T01:48:30.020Z,12.25
2022-11-05T01:51:08.735Z,12.27
2022-11-05T01:53:46.889Z,11.63
2022-11-05T01:56:31.949Z,12.48
2022-11-05T01:59:00.663Z,10.65
2022-11-05T02:01:28.260Z,14.02
2022-11-05T02:04:00.482Z,16.08
2022-11-05T02:06:29.109Z,15.98
2022-11-05T02:09:02.555Z,15.48
2022-11-05T02:11:30.021Z,14.20
2022-11-05T02:13:57.204Z,14.98
2022-11-05T02:16:41.595Z,14.82
2022-11-05T02:19:29.770Z,18.27
2022-11-05T02:22:15.267Z,13.88
2022-11-05T02:24:48.001Z,15.27
2022-11-05T02:27:36.696Z,16.98
2022-11-05T02:30:37.664Z,16.27
2022-11-05T02:33:34.476Z,19.60
2022-11-05T02:36:48.375Z,19.90
2022-11-05T02:39:45.784Z,18.27
2022-11-05T02:42:44.632Z,18.60
2022-11-05T02:45:34.441Z,22.03
2022-11-05T02:48:04.402Z,18.98
2022-11-05T02:50:50.238Z,21.00
2022-11-05T02:53:29.731Z,24.35
2022-11-05T02:56:01.393Z,21.77
2022-11-05T02:58:29.581Z,21.10
2022-11-05T03:00:58.053Z,21.80
2022-11-05T03:03:27.058Z,23.38
2022-11-05T03:06:27.851Z,20.35
2022-11-05T03:08:57.649Z,23.38
2022-11-05T03:14:02.001Z,17.10
2022-11-05T03:16:39.662Z,15.27
2022-11-05T03:19:44.269Z,16.25
2022-11-05T03:22:23.273Z,13.48
2022-11-05T03:24:55.891Z,15.32
2022-11-05T03:27:47.261Z,12.85
2022-11-05T03:30:16.627Z,13.57
2022-11-05T03:32:48.985Z,12.35
2022-11-05T03:35:42.483Z,10.93
2022-11-05T03:38:27.239Z,12.88
2022-11-05T03:40:57.007Z,6.90
2022-11-05T03:45:59.725Z,5.00
2022-11-05T03:48:29.282Z,6.18
2022-11-05T03:51:34.996Z,5.43
2022-11-05T03:54:04.546Z,4.68
2022-11-05T03:56:37.778Z,6.75
2022-11-05T03:59:06.745Z,5.30
2022-11-05T04:01:36.291Z,4.10
2022-11-05T04:06:49.613Z,4.00
2022-11-05T04:09:35.097Z,2.80
2022-11-05T04:12:20.312Z,3.28
2022-11-05T04:14:47.350Z,3.75
2022-11-05T04:17:14.399Z,4.57
2022-11-05T04:20:03.765Z,4.97
2022-11-05T04:22:51.338Z,3.35
2022-11-05T04:25:19.673Z,4.05
2022-11-05T04:27:47.132Z,3.72
2022-11-05T04:30:19.399Z,3.03
2022-11-05T04:32:55.396Z,2.85
2022-11-05T04:35:22.783Z,2.95
2022-11-05T04:37:49.739Z,3.75
2022-11-05T04:40:16.735Z,5.85
2022-11-05T04:42:43.684Z,5.20
2022-11-05T04:45:10.675Z,3.97
2022-11-05T04:47:37.653Z,3.50
2022-11-05T04:50:04.813Z,3.72
2022-11-05T04:52:31.747Z,3.58
2022-11-05T04:54:58.725Z,3.45
2022-11-05T04:57:25.695Z,3.67
2022-11-05T04:59:53.943Z,6.00
2022-11-05T05:02:21.291Z,6.57
2022-11-05T05:04:48.305Z,5.95
2022-11-05T05:07:15.368Z,3.65
2022-11-05T05:09:42.397Z,3.03
2022-11-05T05:12:09.346Z,3.28
2022-11-05T05:14:36.450Z,4.10
2022-11-05T05:17:03.501Z,4.43
2022-11-05T05:19:30.472Z,2.95
2022-11-05T05:21:57.430Z,2.78
2022-11-05T05:24:25.117Z,2.65
2022-11-05T05:26:52.358Z,4.38
2022-11-05T05:29:19.408Z,4.38
2022-11-05T05:31:46.405Z,3.05
2022-11-05T05:34:14.740Z,2.65
2022-11-05T05:36:41.783Z,2.92
2022-11-05T05:39:10.985Z,2.67
2022-11-05T05:41:38.193Z,2.58
2022-11-05T05:48:30.561Z,3.53
2022-11-05T05:51:05.256Z,2.05
2022-11-05T05:53:32.545Z,3.50
2022-11-05T05:55:59.909Z,4.30
2022-11-05T05:58:31.392Z,4.95
2022-11-05T06:01:01.474Z,3.53
2022-11-05T06:03:28.429Z,7.00
2022-11-05T06:06:06.834Z,5.40
2022-11-05T06:08:34.118Z,4.28
2022-11-05T06:11:02.516Z,4.35
2022-11-05T06:13:30.230Z,4.68
2022-11-05T06:16:08.108Z,5.10
2022-11-05T06:18:36.097Z,4.90
2022-11-05T06:21:06.190Z,6.97
2022-11-05T06:23:34.362Z,5.88
2022-11-05T06:26:09.753Z,4.95
2022-11-05T06:28:37.042Z,4.00
2022-11-05T06:31:04.761Z,5.80
2022-11-05T06:33:32.057Z,7.35
2022-11-05T06:36:00.311Z,5.07
2022-11-05T06:38:27.548Z,4.50
2022-11-05T06:40:54.445Z,5.45
2022-11-05T06:43:21.366Z,8.00
2022-11-05T06:45:48.447Z,10.07
2022-11-05T06:48:15.419Z,9.05
2022-11-05T06:50:45.809Z,9.23
2022-11-05T06:53:13.474Z,9.45
2022-11-05T06:55:40.681Z,11.48
2022-11-05T06:58:07.728Z,11.57
2022-11-05T07:00:34.755Z,11.50
2022-11-05T07:03:10.406Z,10.13
2022-11-05T07:05:41.478Z,11.85
2022-11-05T07:08:08.453Z,12.82
2022-11-05T07:10:35.420Z,11.20
2022-11-05T07:13:07.555Z,16.70
2022-11-05T07:15:35.396Z,12.80
2022-11-05T07:18:02.496Z,14.73
2022-11-05T07:20:33.968Z,13.80
2022-11-05T07:23:11.678Z,15.27
2022-11-05T07:25:39.489Z,15.32
2022-11-05T07:28:06.857Z,17.67
2022-11-05T07:30:34.504Z,17.42
2022-11-05T07:33:01.895Z,15.80
2022-11-05T07:35:29.132Z,16.92
2022-11-05T07:37:56.472Z,19.08
2022-11-05T07:40:25.348Z,16.38
2022-11-05T07:42:57.413Z,16.43
2022-11-05T07:45:25.154Z,18.27
2022-11-05T07:48:43.229Z,20.50
2022-11-05T07:51:16.217Z,20.48
2022-11-05T07:53:45.490Z,17.17
2022-11-05T07:56:13.088Z,16.33
2022-11-05T07:58:40.105Z,17.90
2022-11-05T08:01:07.527Z,16.10
2022-11-05T08:03:34.801Z,16.52
2022-11-05T08:06:02.214Z,16.35
2022-11-05T08:08:29.219Z,17.15
2022-11-05T08:11:06.743Z,19.52
2022-11-05T08:14:46.344Z,16.90
2022-11-05T08:19:45.556Z,17.52
2022-11-05T08:22:12.507Z,15.68
2022-11-05T08:24:39.439Z,19.15
2022-11-05T08:27:06.380Z,17.73
2022-11-05T08:29:33.300Z,17.40
2022-11-05T08:32:00.213Z,17.48
2022-11-05T08:34:27.161Z,18.38
2022-11-05T08:36:54.120Z,21.42
2022-11-05T08:39:21.089Z,16.60
2022-11-05T08:41:48.134Z,17.27
2022-11-05T08:44:15.137Z,14.80
2022-11-05T08:46:42.092Z,12.75
2022-11-05T08:49:09.099Z,13.85
2022-11-05T08:51:36.052Z,15.70
2022-11-05T08:54:03.056Z,15.60
2022-11-05T08:56:30.036Z,15.88
2022-11-05T08:58:57.062Z,17.55
2022-11-05T09:01:24.094Z,16.60
2022-11-05T09:03:51.987Z,15.57
2022-11-05T09:06:22.600Z,16.90
2022-11-05T09:09:08.600Z,14.85
2022-11-05T09:12:05.275Z,20.63
2022-11-05T09:14:22.662Z,14.18
2022-11-05T09:16:49.696Z,12.23
2022-11-05T09:19:16.766Z,14.20
2022-11-05T09:21:43.785Z,15.45
2022-11-05T09:24:10.849Z,13.65
2022-11-05T09:26:37.804Z,12.18
2022-11-05T09:29:04.886Z,12.75
2022-11-05T09:36:21.800Z,13.23
2022-11-05T09:38:48.789Z,13.38
2022-11-05T09:41:34.467Z,14.93
2022-11-05T09:44:06.118Z,13.52
2022-11-05T09:46:58.112Z,17.27
2022-11-05T09:49:30.817Z,14.43
2022-11-05T09:51:58.786Z,13.43
2022-11-05T09:54:29.505Z,13.98
2022-11-05T09:56:57.050Z,10.10
2022-11-05T09:59:31.422Z,11.90
2022-11-05T10:02:09.931Z,13.98
2022-11-05T10:04:38.428Z,11.88
2022-11-05T10:07:08.044Z,11.75
2022-11-05T10:09:51.593Z,10.55
2022-11-05T10:12:24.374Z,11.27
2022-11-05T10:15:14.923Z,9.77
2022-11-05T10:17:47.868Z,8.85
2022-11-05T10:20:32.118Z,8.80
2022-11-05T10:23:17.741Z,9.85
2022-11-05T10:25:57.184Z,8.38
2022-11-05T10:28:30.442Z,8.35
2022-11-05T10:31:04.260Z,9.85
2022-11-05T10:33:35.913Z,10.55
2022-11-05T10:36:06.882Z,9.52
2022-11-05T10:38:34.286Z,10.80
2022-11-05T10:41:28.875Z,7.90
2022-11-05T10:44:07.447Z,8.60
2022-11-05T10:46:54.769Z,10.00
2022-11-05T10:49:27.490Z,10.90
2022-11-05T10:51:57.365Z,10.20
2022-11-05T10:54:31.613Z,8.65
2022-11-05T10:57:35.890Z,8.20
2022-11-05T11:00:15.161Z,8.15
2022-11-05T11:02:48.072Z,9.05
2022-11-05T11:05:29.813Z,6.85
2022-11-05T11:08:09.137Z,8.73
2022-11-05T11:10:58.401Z,9.27
2022-11-05T11:18:21.926Z,8.77
2022-11-05T11:20:48.927Z,9.13
2022-11-05T11:23:16.843Z,7.60
2022-11-05T11:26:00.693Z,6.95
2022-11-05T11:28:53.220Z,6.95
2022-11-05T11:31:26.662Z,7.47
2022-11-05T11:34:02.720Z,8.32
2022-11-05T11:40:43.081Z,5.30
2022-11-05T11:43:24.292Z,5.55
2022-11-05T11:45:54.389Z,7.40
2022-11-05T11:48:28.864Z,8.63
2022-11-05T11:50:57.254Z,6.90
2022-11-05T11:53:33.765Z,6.10
2022-11-05T11:56:00.778Z,6.10
2022-11-05T12:00:06.641Z,7.95
2022-11-05T12:02:26.707Z,7.57
2022-11-05T12:05:36.151Z,7.72
2022-11-05T12:08:30.444Z,8.88
2022-11-05T12:11:23.723Z,6.93
2022-11-05T12:14:21.360Z,6.93
2022-11-05T12:16:53.042Z,8.35
2022-11-05T12:19:23.118Z,9.50
2022-11-05T12:21:53.561Z,8.68
2022-11-05T12:24:29.961Z,8.00
2022-11-05T12:26:59.902Z,11.68
2022-11-05T12:30:02.572Z,11.05
2022-11-05T12:32:58.522Z,9.02
2022-11-05T12:35:57.807Z,9.13
2022-11-05T12:39:02.871Z,9.07
2022-11-05T12:41:53.903Z,11.52
2022-11-05T12:45:16.258Z,9.10
2022-11-05T12:47:49.341Z,9.50
2022-11-05T12:50:37.811Z,7.50
2022-11-05T12:53:32.742Z,7.22
2022-11-05T12:56:05.405Z,35.67
2022-11-05T12:58:40.306Z,10.98
2022-11-05T13:01:13.336Z,9.20
2022-11-05T13:03:48.484Z,9.48
2022-11-05T13:06:25.720Z,10.32
2022-11-05T13:09:10.687Z,10.38
2022-11-05T13:11:52.811Z,8.20
2022-11-05T13:14:38.498Z,10.57
2022-11-05T13:17:19.112Z,9.88
2022-11-05T13:20:11.747Z,10.25
2022-11-05T13:23:24.276Z,10.75
2022-11-05T13:28:47.088Z,9.70
2022-11-05T13:31:18.772Z,10.57
2022-11-05T13:33:48.977Z,11.13
2022-11-05T13:36:43.548Z,9.70
2022-11-05T13:39:13.289Z,8.10
2022-11-05T13:44:34.553Z,9.55
2022-11-05T13:47:10.552Z,8.63
2022-11-05T13:49:37.503Z,9.68
2022-11-05T13:52:30.869Z,13.88
2022-11-05T13:55:28.967Z,13.00
2022-11-05T13:58:10.967Z,8.57
2022-11-05T14:00:48.146Z,8.73
2022-11-05T14:03:20.175Z,8.32
2022-11-05T14:06:12.888Z,9.77
2022-11-05T14:08:49.372Z,13.38
2022-11-05T14:11:33.113Z,10.60
2022-11-05T14:14:07.069Z,10.93
2022-11-05T14:16:53.119Z,10.95
2022-11-05T14:19:20.077Z,10.07
2022-11-05T14:21:51.530Z,9.45
2022-11-05T14:24:43.139Z,10.52
2022-11-05T14:27:13.012Z,10.82
2022-11-05T14:32:21.969Z,9.38
2022-11-05T14:35:15.150Z,11.80
2022-11-05T14:37:54.929Z,10.98
2022-11-05T14:42:55.153Z,9.95
2022-11-05T14:45:38.966Z,10.77
2022-11-05T14:48:24.656Z,9.82
2022-11-05T14:50:51.901Z,10.20
2022-11-05T14:53:25.381Z,12.20
2022-11-05T14:56:12.390Z,9.85
2022-11-05T14:58:44.424Z,11.57
2022-11-05T15:01:14.429Z,11.15
2022-11-05T15:03:46.481Z,12.68
2022-11-05T15:06:23.441Z,10.45
2022-11-05T15:08:50.445Z,10.88
2022-11-05T15:11:39.775Z,12.25
2022-11-05T15:14:06.772Z,13.48
2022-11-05T15:16:40.455Z,12.05
2022-11-05T15:19:18.347Z,15.23
2022-11-05T15:21:45.949Z,14.70
2022-11-05T15:24:16.485Z,14.77
2022-11-05T15:26:52.638Z,15.20
2022-11-05T15:29:26.120Z,15.18
2022-11-05T15:31:53.779Z,14.60
2022-11-05T15:34:25.336Z,14.18
2022-11-05T15:36:55.564Z,14.73
2022-11-05T15:39:38.600Z,16.42
2022-11-05T15:42:14.611Z,13.63
2022-11-05T15:44:44.313Z,16.05
2022-11-05T15:51:36.375Z,16.83
2022-11-05T15:56:58.090Z,15.35
2022-11-05T15:59:27.604Z,16.83
2022-11-05T16:01:57.152Z,18.30
2022-11-05T16:04:28.574Z,16.10
2022-11-05T16:06:59.149Z,14.40
2022-11-05T16:09:30.278Z,17.80
2022-11-05T16:12:19.512Z,19.67
2022-11-05T16:15:09.263Z,15.70
2022-11-05T16:20:22.225Z,17.40
2022-11-05T16:22:52.367Z,13.82
2022-11-05T16:25:40.062Z,15.23
2022-11-05T16:28:29.219Z,17.15
2022-11-05T16:30:57.528Z,19.52
2022-11-05T16:33:33.490Z,21.60
2022-11-05T16:36:00.576Z,17.17
2022-11-05T16:38:28.066Z,17.95
2022-11-05T16:40:55.048Z,17.15
2022-11-05T16:43:24.637Z,15.68
2022-11-05T16:45:55.470Z,15.45
2022-11-05T16:48:54.170Z,23.48
2022-11-05T16:51:27.230Z,20.55
2022-11-05T16:53:54.571Z,22.70
2022-11-05T16:56:22.725Z,85.50
2022-11-05T16:58:50.157Z,22.10
2022-11-05T17:01:22.693Z,40.63
2022-11-05T17:03:52.125Z,33.33
2022-11-05T17:06:20.898Z,25.58
2022-11-05T17:08:48.778Z,22.92
2022-11-05T17:11:19.694Z,22.10
2022-11-05T17:13:47.686Z,20.80
2022-11-05T17:16:17.202Z,22.13
2022-11-05T17:18:44.568Z,24.80
2022-11-05T17:21:12.729Z,30.95
2022-11-05T17:23:39.982Z,27.90
2022-11-05T17:26:11.070Z,24.50
2022-11-05T17:28:38.961Z,28.00
2022-11-05T17:31:09.173Z,23.15
2022-11-05T17:33:36.542Z,24.20
2022-11-05T17:36:41.613Z,26.70
2022-11-05T17:39:09.238Z,27.67
2022-11-05T17:41:36.474Z,29.75
2022-11-05T17:44:03.505Z,23.40
2022-11-05T17:46:30.455Z,26.20
2022-11-05T17:48:57.457Z,30.25
2022-11-05T17:51:24.427Z,28.65
2022-11-05T17:53:51.541Z,26.77
2022-11-05T17:56:30.532Z,27.30
2022-11-05T17:59:01.905Z,26.73
2022-11-05T18:01:31.492Z,28.15
2022-11-05T18:06:32.141Z,27.77
2022-11-05T18:08:59.144Z,29.27
2022-11-05T18:11:26.159Z,25.45
2022-11-05T18:13:53.180Z,27.33
2022-11-05T18:16:20.164Z,25.35
2022-11-05T18:18:48.833Z,20.80
2022-11-05T18:21:15.794Z,23.80
2022-11-05T18:23:43.272Z,23.40
2022-11-05T18:26:11.526Z,21.98
2022-11-05T18:28:38.640Z,21.95
2022-11-05T18:31:15.275Z,20.98
2022-11-05T18:33:45.033Z,20.33
2022-11-05T18:36:24.360Z,20.33
2022-11-05T18:38:52.037Z,19.92
2022-11-05T18:41:20.387Z,19.52
2022-11-05T18:43:47.650Z,19.48
2022-11-05T18:46:36.035Z,19.83
2022-11-05T18:49:02.096Z,21.58
2022-11-05T18:51:29.157Z,18.38
2022-11-05T18:53:56.363Z,24.50
2022-11-05T18:56:23.885Z,22.58
2022-11-05T18:59:14.713Z,18.80
2022-11-05T19:01:41.144Z,19.17
2022-11-05T19:04:08.585Z,17.40
2022-11-05T19:06:36.375Z,23.08
2022-11-05T19:09:04.508Z,20.50
2022-11-05T19:11:31.681Z,18.77
2022-11-05T19:13:58.837Z,23.95
2022-11-05T19:16:28.111Z,21.92
2022-11-05T19:18:58.056Z,21.15
2022-11-05T19:21:26.649Z,15.77
2022-11-05T19:23:56.348Z,18.80
2022-11-05T19:28:58.892Z,16.02
2022-11-05T19:36:42.766Z,18.85
2022-11-05T19:39:13.431Z,18.02
2022-11-05T19:41:40.770Z,20.05
2022-11-05T19:44:08.661Z,20.55
2022-11-05T19:46:54.743Z,20.13
2022-11-05T19:49:21.736Z,17.67
2022-11-05T19:51:51.171Z,17.35
2022-11-05T19:54:18.213Z,18.42
2022-11-05T19:56:45.806Z,15.77
2022-11-05T19:59:13.255Z,17.88
2022-11-05T20:06:28.745Z,18.83
2022-11-05T20:11:49.858Z,20.15
2022-11-05T20:14:17.276Z,20.58
2022-11-05T20:16:46.258Z,22.48
2022-11-05T20:19:16.037Z,15.75
2022-11-05T20:22:26.448Z,16.65
2022-11-05T20:24:54.613Z,20.95
2022-11-05T20:27:21.583Z,14.88
2022-11-05T20:29:48.578Z,17.52
2022-11-05T20:32:44.568Z,17.90
2022-11-05T20:35:11.585Z,15.65
2022-11-05T20:37:38.560Z,15.68
2022-11-05T20:40:06.209Z,17.20
2022-11-05T20:42:36.197Z,15.80
2022-11-05T20:45:03.248Z,16.15
2022-11-05T20:47:31.278Z,18.77
2022-11-05T20:50:00.048Z,17.63
2022-11-05T20:52:27.762Z,15.25
2022-11-05T20:54:55.034Z,16.40
2022-11-05T20:57:22.476Z,18.33
2022-11-05T20:59:49.435Z,15.60
2022-11-05T21:02:16.560Z,15.77
2022-11-05T21:04:43.597Z,13.95
2022-11-05T21:07:10.647Z,17.58
2022-11-05T21:09:37.654Z,19.17
2022-11-05T21:12:10.467Z,16.20
2022-11-05T21:18:50.186Z,13.57
2022-11-05T21:21:20.684Z,14.52
2022-11-05T21:23:48.173Z,15.30
2022-11-05T21:26:16.951Z,14.02
2022-11-05T21:28:44.071Z,11.17
2022-11-05T21:31:11.243Z,14.05
2022-11-05T21:33:38.538Z,12.57
2022-11-05T21:36:11.380Z,14.50
2022-11-05T21:38:38.958Z,12.95
2022-11-05T21:41:06.645Z,10.50
2022-11-05T21:43:34.583Z,14.48
2022-11-05T21:46:03.405Z,14.68
2022-11-05T21:48:31.375Z,13.77
2022-11-05T21:55:20.782Z,17.40
2022-11-05T21:58:06.286Z,15.63
2022-11-05T22:00:33.333Z,13.60
2022-11-05T22:03:00.616Z,17.83
2022-11-05T22:05:28.043Z,16.77
2022-11-05T22:07:55.111Z,14.80
2022-11-05T22:10:22.187Z,19.02
2022-11-05T22:12:49.273Z,25.55
2022-11-05T22:15:16.316Z,21.33
2022-11-05T22:17:47.012Z,22.38
2022-11-05T22:20:14.840Z,19.15
2022-11-05T22:22:41.851Z,28.50
2022-11-05T22:25:09.462Z,18.88
2022-11-05T22:27:36.568Z,29.02
2022-11-05T22:30:03.886Z,23.50
2022-11-05T22:32:30.905Z,24.13
2022-11-05T22:34:57.861Z,29.27
2022-11-05T22:37:24.839Z,27.17
2022-11-05T22:39:51.963Z,28.58
2022-11-05T22:42:18.998Z,24.67
2022-11-05T22:44:45.979Z,26.23
2022-11-05T22:47:14.137Z,24.50
2022-11-05T22:49:41.319Z,28.70
2022-11-05T22:52:08.345Z,24.73
2022-11-05T22:54:39.265Z,23.48
2022-11-05T22:57:06.883Z,27.48
2022-11-05T22:59:33.875Z,27.40
2022-11-05T23:02:05.125Z,26.45
2022-11-05T23:04:35.336Z,23.95
2022-11-05T23:07:26.158Z,23.83
2022-11-05T23:10:12.929Z,23.55
2022-11-05T23:12:40.110Z,25.08
2022-11-05T23:15:08.501Z,24.52
2022-11-05T23:17:53.875Z,22.85
2022-11-05T23:20:42.169Z,23.63
2022-11-05T23:23:31.587Z,27.83
2022-11-05T23:26:00.146Z,24.48
2022-11-05T23:28:27.207Z,31.83
2022-11-05T23:31:14.457Z,29.98
2022-11-05T23:33:41.448Z,34.35
2022-11-05T23:36:31.573Z,30.98
2022-11-05T23:38:58.555Z,28.17
2022-11-05T23:41:44.201Z,27.55
2022-11-05T23:44:29.469Z,27.50
2022-11-05T23:47:14.832Z,32.90
2022-11-05T23:49:41.789Z,35.88
2022-11-05T23:52:08.782Z,39.67
2022-11-05T23:54:35.765Z,111.97
2022-11-05T23:57:02.746Z,217.82
2022-11-05T23:59:29.708Z,120.47
